Magdagaci, Russia
Current Conditions -  °F | °C
As of 1:00 AM on Sunday 23 Nov 2014 (Local Time) from UHBB Reporting Station
Clear Clear  
Wind Chill: -6°   Ceiling: Unl
Heat Index:   Visibility: 6mi
Dew Point:   Wind: 4mph
Humidity: 85%   Direction: 240°WSW
Pressure: 30.18"   Gusts: NA
Location:  53.47°N, 125.82°E
Report Text: UHBB 221600Z 24002MPS CAVOK M16/M18 Q1022 NOSIG RMK QFE749/099836810350
Loading
Personal Weather Stations






























Interactive Weather Map New forecast layout! Learn more

10-Day Weather Forecast

Advertisements
Track Severe Weather on mobile